This is the latest recevied weather packets stored in our database for station/object KQ4HEI. If no packets are shown the sender has not sent any weather packets the latest 1 day(s).
| Time | Temp. | Humidity | Pressure | Rain* | Wind** | Luminosity | Snow |
|---|---|---|---|---|---|---|---|
| 1778014469 | 30° C | 49% | 1013.1 hPa | 0 mm | 1.79 m/s, 244° | - | - |
| 1778013268 | 30° C | 49% | 1013.2 hPa | 0 mm | 1.34 m/s, 212° | - | - |
| 1778012069 | 29.44° C | 50% | 1013.4 hPa | 0 mm | 2.24 m/s, 243° | - | - |
| 1778010870 | 30° C | 47% | 1013.4 hPa | 0 mm | 2.24 m/s, 242° | - | - |
| 1778009668 | 30.56° C | 48% | 1013.6 hPa | 0 mm | 2.24 m/s, 149° | - | - |
| 1778008468 | 30° C | 47% | 1014 hPa | 0 mm | 1.79 m/s, 221° | - | - |
| 1778007269 | 28.89° C | 50% | 1014 hPa | 0 mm | 1.79 m/s, 187° | - | - |
| 1778006117 | 30° C | 46% | 1014.1 hPa | 0 mm | 1.79 m/s, 230° | - | - |
| 1778006069 | 30° C | 46% | 1014.1 hPa | 0 mm | 1.79 m/s, 230° | - | - |
| 1778004869 | 30° C | 47% | 1014.4 hPa | 0 mm | 2.24 m/s, 242° | - | - |
| 1778003669 | 29.44° C | 47% | 1014.3 hPa | 0 mm | 1.34 m/s, 225° | - | - |
| 1778002469 | 28.89° C | 47% | 1014.5 hPa | 0 mm | 1.79 m/s, 208° | - | - |
| 1778001269 | 27.78° C | 51% | 1014.7 hPa | 0 mm | 1.34 m/s, 169° | - | - |
| 1778000068 | 28.33° C | 49% | 1014.8 hPa | 0 mm | 2.24 m/s, 149° | - | - |
| 1777998868 | 28.33° C | 50% | 1014.7 hPa | 0 mm | 1.79 m/s, 163° | - | - |
| 1777997668 | 28.33° C | 50% | 1014.9 hPa | 0 mm | 1.79 m/s, 161° | - | - |
| 1777996468 | 27.78° C | 52% | 1014.9 hPa | 0 mm | 1.34 m/s, 118° | - | - |
| 1777995269 | 26.67° C | 54% | 1015 hPa | 0 mm | 0.89 m/s, 70° | - | - |
| 1777992868 | 25.56° C | 53% | 1015.1 hPa | 0 mm | 0.89 m/s, 123° | - | - |
| 1777991669 | 25.56° C | 52% | 1014.8 hPa | 0 mm | 1.34 m/s, 136° | - | - |
| 1777990469 | 25° C | 51% | 1014.7 hPa | 0 mm | 1.34 m/s, 120° | - | - |
| 1777989269 | 23.89° C | 61% | 1014.7 hPa | 0 mm | 1.34 m/s, 118° | - | - |
| 1777988068 | 22.78° C | 66% | 1014.7 hPa | 0 mm | 0.89 m/s, 106° | - | - |
| 1777986868 | 21.11° C | 72% | 1014.9 hPa | 0 mm | 0.89 m/s, 145° | - | - |
| 1777985669 | 20° C | 78% | 1014.7 hPa | 0 mm | 0.45 m/s, 153° | - | - |
* Rain latest hour (hover to see other rain measurements)
** Current wind speed in m/s (hover to see current wind gust speed)